sensor_id;sensor_type;location;lat;lon;timestamp;temperature;humidity
45849;DHT22;31567;54.600;9.842;2022-08-19T00:02:55;21.40;98.60
45849;DHT22;31567;54.600;9.842;2022-08-19T00:06:36;21.40;98.60
45849;DHT22;31567;54.600;9.842;2022-08-19T00:10:17;21.40;98.50
45849;DHT22;31567;54.600;9.842;2022-08-19T00:13:57;21.40;98.50
45849;DHT22;31567;54.600;9.842;2022-08-19T00:17:39;21.40;98.40
45849;DHT22;31567;54.600;9.842;2022-08-19T00:21:18;21.40;98.40
45849;DHT22;31567;54.600;9.842;2022-08-19T00:24:58;21.30;98.40
45849;DHT22;31567;54.600;9.842;2022-08-19T00:28:37;21.40;98.40
45849;DHT22;31567;54.600;9.842;2022-08-19T00:32:17;21.40;98.40
45849;DHT22;31567;54.600;9.842;2022-08-19T00:35:57;21.30;98.40
45849;DHT22;31567;54.600;9.842;2022-08-19T00:39:36;21.30;98.50
45849;DHT22;31567;54.600;9.842;2022-08-19T00:43:19;21.30;98.50
45849;DHT22;31567;54.600;9.842;2022-08-19T00:47:00;21.30;98.80
45849;DHT22;31567;54.600;9.842;2022-08-19T00:50:41;21.30;98.50
45849;DHT22;31567;54.600;9.842;2022-08-19T00:54:22;21.20;98.50
45849;DHT22;31567;54.600;9.842;2022-08-19T00:58:06;21.20;98.50
45849;DHT22;31567;54.600;9.842;2022-08-19T01:01:47;21.20;98.50
45849;DHT22;31567;54.600;9.842;2022-08-19T01:05:27;21.20;98.50
45849;DHT22;31567;54.600;9.842;2022-08-19T01:09:09;21.20;98.60
45849;DHT22;31567;54.600;9.842;2022-08-19T01:12:49;21.30;98.60
45849;DHT22;31567;54.600;9.842;2022-08-19T01:16:30;21.20;98.50
45849;DHT22;31567;54.600;9.842;2022-08-19T01:20:14;21.20;98.60
45849;DHT22;31567;54.600;9.842;2022-08-19T01:23:54;21.10;98.70
45849;DHT22;31567;54.600;9.842;2022-08-19T01:27:41;21.10;98.70
45849;DHT22;31567;54.600;9.842;2022-08-19T01:31:25;21.10;98.80
45849;DHT22;31567;54.600;9.842;2022-08-19T01:35:05;21.00;98.80
45849;DHT22;31567;54.600;9.842;2022-08-19T01:38:45;21.00;98.90
45849;DHT22;31567;54.600;9.842;2022-08-19T01:42:25;20.90;99.00
45849;DHT22;31567;54.600;9.842;2022-08-19T01:46:05;21.00;99.10
45849;DHT22;31567;54.600;9.842;2022-08-19T01:49:44;21.00;99.20
45849;DHT22;31567;54.600;9.842;2022-08-19T01:53:24;20.90;99.20
45849;DHT22;31567;54.600;9.842;2022-08-19T01:57:07;21.00;99.30
45849;DHT22;31567;54.600;9.842;2022-08-19T02:00:48;21.00;99.30
45849;DHT22;31567;54.600;9.842;2022-08-19T02:04:28;20.90;99.30
45849;DHT22;31567;54.600;9.842;2022-08-19T02:08:08;20.90;99.30
45849;DHT22;31567;54.600;9.842;2022-08-19T02:11:48;21.00;99.30
45849;DHT22;31567;54.600;9.842;2022-08-19T02:15:27;20.90;99.30
45849;DHT22;31567;54.600;9.842;2022-08-19T02:19:07;21.00;99.40
45849;DHT22;31567;54.600;9.842;2022-08-19T02:22:47;21.00;99.40
45849;DHT22;31567;54.600;9.842;2022-08-19T02:26:26;21.00;99.40
45849;DHT22;31567;54.600;9.842;2022-08-19T02:30:08;20.90;99.50
45849;DHT22;31567;54.600;9.842;2022-08-19T02:33:49;20.90;99.60
45849;DHT22;31567;54.600;9.842;2022-08-19T02:37:29;20.90;99.60
45849;DHT22;31567;54.600;9.842;2022-08-19T02:41:30;20.90;99.70
45849;DHT22;31567;54.600;9.842;2022-08-19T02:45:11;20.80;99.90
45849;DHT22;31567;54.600;9.842;2022-08-19T02:48:53;20.80;99.90
45849;DHT22;31567;54.600;9.842;2022-08-19T02:52:34;20.80;99.90
45849;DHT22;31567;54.600;9.842;2022-08-19T02:56:14;20.80;99.90
45849;DHT22;31567;54.600;9.842;2022-08-19T02:59:53;20.80;99.90
45849;DHT22;31567;54.600;9.842;2022-08-19T03:03:33;20.90;99.90
45849;DHT22;31567;54.600;9.842;2022-08-19T03:07:14;20.80;99.90
45849;DHT22;31567;54.600;9.842;2022-08-19T03:10:54;20.80;99.90
45849;DHT22;31567;54.600;9.842;2022-08-19T03:14:34;20.80;99.90
45849;DHT22;31567;54.600;9.842;2022-08-19T03:18:15;20.80;99.90
45849;DHT22;31567;54.600;9.842;2022-08-19T03:21:55;20.90;99.90
45849;DHT22;31567;54.600;9.842;2022-08-19T03:25:39;20.90;99.90
45849;DHT22;31567;54.600;9.842;2022-08-19T03:29:20;20.90;99.90
45849;DHT22;31567;54.600;9.842;2022-08-19T03:32:59;20.90;99.90
45849;DHT22;31567;54.600;9.842;2022-08-19T03:36:39;20.90;99.90
45849;DHT22;31567;54.600;9.842;2022-08-19T03:40:19;20.80;99.90
45849;DHT22;31567;54.600;9.842;2022-08-19T03:43:59;20.80;99.90
45849;DHT22;31567;54.600;9.842;2022-08-19T03:47:38;20.80;99.90
45849;DHT22;31567;54.600;9.842;2022-08-19T03:51:29;20.80;99.90
45849;DHT22;31567;54.600;9.842;2022-08-19T03:55:10;20.80;99.90
45849;DHT22;31567;54.600;9.842;2022-08-19T03:58:49;20.80;99.90
45849;DHT22;31567;54.600;9.842;2022-08-19T04:02:29;20.80;99.90
45849;DHT22;31567;54.600;9.842;2022-08-19T04:06:21;20.90;99.90
45849;DHT22;31567;54.600;9.842;2022-08-19T04:10:01;20.90;99.90
45849;DHT22;31567;54.600;9.842;2022-08-19T04:13:41;20.90;99.90
45849;DHT22;31567;54.600;9.842;2022-08-19T04:17:21;20.90;99.90
45849;DHT22;31567;54.600;9.842;2022-08-19T04:21:01;20.90;99.90
45849;DHT22;31567;54.600;9.842;2022-08-19T04:24:41;20.90;99.90
45849;DHT22;31567;54.600;9.842;2022-08-19T04:28:21;21.00;99.90
45849;DHT22;31567;54.600;9.842;2022-08-19T04:32:01;20.90;99.90
45849;DHT22;31567;54.600;9.842;2022-08-19T04:35:43;20.90;99.90
45849;DHT22;31567;54.600;9.842;2022-08-19T04:39:27;20.90;99.90
45849;DHT22;31567;54.600;9.842;2022-08-19T04:43:27;21.00;99.90
45849;DHT22;31567;54.600;9.842;2022-08-19T04:47:07;21.00;99.90
45849;DHT22;31567;54.600;9.842;2022-08-19T04:50:46;20.90;99.90
45849;DHT22;31567;54.600;9.842;2022-08-19T04:54:27;20.90;99.90
45849;DHT22;31567;54.600;9.842;2022-08-19T04:58:07;20.90;99.90
45849;DHT22;31567;54.600;9.842;2022-08-19T05:01:47;20.90;99.90
45849;DHT22;31567;54.600;9.842;2022-08-19T05:05:29;20.90;99.90
45849;DHT22;31567;54.600;9.842;2022-08-19T05:09:10;20.90;99.90
45849;DHT22;31567;54.600;9.842;2022-08-19T05:12:49;20.90;99.90
45849;DHT22;31567;54.600;9.842;2022-08-19T05:16:29;20.90;99.90
45849;DHT22;31567;54.600;9.842;2022-08-19T05:20:09;20.90;99.90
45849;DHT22;31567;54.600;9.842;2022-08-19T05:24:08;20.80;99.90
45849;DHT22;31567;54.600;9.842;2022-08-19T05:27:48;20.80;99.90
45849;DHT22;31567;54.600;9.842;2022-08-19T05:31:28;20.80;99.90
45849;DHT22;31567;54.600;9.842;2022-08-19T05:35:08;20.90;99.90
45849;DHT22;31567;54.600;9.842;2022-08-19T05:38:47;21.00;99.90
45849;DHT22;31567;54.600;9.842;2022-08-19T05:42:27;21.00;99.80
45849;DHT22;31567;54.600;9.842;2022-08-19T05:46:07;21.00;99.70
45849;DHT22;31567;54.600;9.842;2022-08-19T05:49:47;21.00;99.70
45849;DHT22;31567;54.600;9.842;2022-08-19T05:53:29;21.00;99.70
45849;DHT22;31567;54.600;9.842;2022-08-19T05:57:09;21.00;99.70
45849;DHT22;31567;54.600;9.842;2022-08-19T06:00:48;21.00;99.70
45849;DHT22;31567;54.600;9.842;2022-08-19T06:04:28;21.00;99.70
45849;DHT22;31567;54.600;9.842;2022-08-19T06:08:08;21.00;99.80
45849;DHT22;31567;54.600;9.842;2022-08-19T06:11:50;21.00;99.70
45849;DHT22;31567;54.600;9.842;2022-08-19T06:15:32;21.00;99.70
45849;DHT22;31567;54.600;9.842;2022-08-19T06:19:16;21.00;99.70
45849;DHT22;31567;54.600;9.842;2022-08-19T06:22:56;21.00;99.80
45849;DHT22;31567;54.600;9.842;2022-08-19T06:26:37;21.00;99.70
45849;DHT22;31567;54.600;9.842;2022-08-19T06:30:17;21.00;99.80
45849;DHT22;31567;54.600;9.842;2022-08-19T06:33:57;21.00;99.70
45849;DHT22;31567;54.600;9.842;2022-08-19T06:37:37;21.00;99.70
45849;DHT22;31567;54.600;9.842;2022-08-19T06:41:16;20.90;99.80
45849;DHT22;31567;54.600;9.842;2022-08-19T06:44:56;20.90;99.80
45849;DHT22;31567;54.600;9.842;2022-08-19T06:48:37;20.90;99.80
45849;DHT22;31567;54.600;9.842;2022-08-19T06:52:17;20.80;99.80
45849;DHT22;31567;54.600;9.842;2022-08-19T06:55:56;20.90;99.90
45849;DHT22;31567;54.600;9.842;2022-08-19T06:59:39;20.90;99.90
45849;DHT22;31567;54.600;9.842;2022-08-19T07:03:19;20.90;99.90
45849;DHT22;31567;54.600;9.842;2022-08-19T07:07:10;20.90;99.90
45849;DHT22;31567;54.600;9.842;2022-08-19T07:10:51;20.90;99.90
45849;DHT22;31567;54.600;9.842;2022-08-19T07:14:31;20.80;99.90
45849;DHT22;31567;54.600;9.842;2022-08-19T07:18:10;20.80;99.90
45849;DHT22;31567;54.600;9.842;2022-08-19T07:21:50;20.80;99.90
45849;DHT22;31567;54.600;9.842;2022-08-19T07:25:33;20.80;99.90
45849;DHT22;31567;54.600;9.842;2022-08-19T07:29:12;20.70;99.90
45849;DHT22;31567;54.600;9.842;2022-08-19T07:32:52;20.70;99.90
45849;DHT22;31567;54.600;9.842;2022-08-19T07:36:33;20.70;99.90
45849;DHT22;31567;54.600;9.842;2022-08-19T07:40:13;20.70;99.90
45849;DHT22;31567;54.600;9.842;2022-08-19T07:43:53;20.80;99.90
45849;DHT22;31567;54.600;9.842;2022-08-19T07:47:33;20.80;99.90
45849;DHT22;31567;54.600;9.842;2022-08-19T07:51:15;20.80;99.90
45849;DHT22;31567;54.600;9.842;2022-08-19T07:54:54;20.90;99.90
45849;DHT22;31567;54.600;9.842;2022-08-19T07:58:38;20.80;99.90
45849;DHT22;31567;54.600;9.842;2022-08-19T08:02:17;20.80;99.90
45849;DHT22;31567;54.600;9.842;2022-08-19T08:05:57;20.70;99.90
45849;DHT22;31567;54.600;9.842;2022-08-19T08:09:55;20.80;99.90
45849;DHT22;31567;54.600;9.842;2022-08-19T08:13:35;20.70;99.90
45849;DHT22;31567;54.600;9.842;2022-08-19T08:17:17;20.80;99.90
45849;DHT22;31567;54.600;9.842;2022-08-19T08:20:58;20.80;99.90
45849;DHT22;31567;54.600;9.842;2022-08-19T08:24:38;20.80;99.90
45849;DHT22;31567;54.600;9.842;2022-08-19T08:28:18;20.80;99.90
45849;DHT22;31567;54.600;9.842;2022-08-19T08:31:58;20.80;99.90
45849;DHT22;31567;54.600;9.842;2022-08-19T08:35:39;20.80;99.90
45849;DHT22;31567;54.600;9.842;2022-08-19T08:39:21;20.80;99.90
45849;DHT22;31567;54.600;9.842;2022-08-19T08:43:07;20.90;99.90
45849;DHT22;31567;54.600;9.842;2022-08-19T08:46:52;20.90;99.90
45849;DHT22;31567;54.600;9.842;2022-08-19T08:50:41;20.90;99.90
45849;DHT22;31567;54.600;9.842;2022-08-19T08:54:24;20.90;99.90
45849;DHT22;31567;54.600;9.842;2022-08-19T08:58:13;20.90;99.90
45849;DHT22;31567;54.600;9.842;2022-08-19T09:01:55;20.90;99.90
45849;DHT22;31567;54.600;9.842;2022-08-19T09:06:02;20.90;99.90
45849;DHT22;31567;54.600;9.842;2022-08-19T09:09:48;20.90;99.90
45849;DHT22;31567;54.600;9.842;2022-08-19T09:17:35;21.00;99.90
45849;DHT22;31567;54.600;9.842;2022-08-19T09:21:18;21.00;99.90
45849;DHT22;31567;54.600;9.842;2022-08-19T09:24:57;21.00;99.90
45849;DHT22;31567;54.600;9.842;2022-08-19T09:28:37;21.00;99.90
45849;DHT22;31567;54.600;9.842;2022-08-19T09:32:17;21.10;99.90
45849;DHT22;31567;54.600;9.842;2022-08-19T09:36:08;21.10;99.90
45849;DHT22;31567;54.600;9.842;2022-08-19T09:39:48;21.20;99.90
45849;DHT22;31567;54.600;9.842;2022-08-19T09:43:28;21.10;99.90
45849;DHT22;31567;54.600;9.842;2022-08-19T09:47:09;21.10;99.90
45849;DHT22;31567;54.600;9.842;2022-08-19T09:50:49;21.10;99.90
45849;DHT22;31567;54.600;9.842;2022-08-19T09:54:30;21.10;99.90
45849;DHT22;31567;54.600;9.842;2022-08-19T09:58:09;21.20;99.90
45849;DHT22;31567;54.600;9.842;2022-08-19T10:01:50;21.20;99.90
45849;DHT22;31567;54.600;9.842;2022-08-19T10:05:30;21.10;99.90
45849;DHT22;31567;54.600;9.842;2022-08-19T10:09:28;21.20;99.90
45849;DHT22;31567;54.600;9.842;2022-08-19T10:13:07;21.20;99.90
45849;DHT22;31567;54.600;9.842;2022-08-19T10:16:47;21.20;99.90
45849;DHT22;31567;54.600;9.842;2022-08-19T10:20:26;21.20;99.90
45849;DHT22;31567;54.600;9.842;2022-08-19T10:24:06;21.20;99.90
45849;DHT22;31567;54.600;9.842;2022-08-19T10:27:46;21.20;99.90
45849;DHT22;31567;54.600;9.842;2022-08-19T10:31:28;21.30;99.90
45849;DHT22;31567;54.600;9.842;2022-08-19T10:35:08;21.30;99.90
45849;DHT22;31567;54.600;9.842;2022-08-19T10:38:53;21.40;99.90
45849;DHT22;31567;54.600;9.842;2022-08-19T10:42:34;21.40;99.90
45849;DHT22;31567;54.600;9.842;2022-08-19T10:46:15;21.40;99.90
45849;DHT22;31567;54.600;9.842;2022-08-19T10:49:55;21.40;99.90
45849;DHT22;31567;54.600;9.842;2022-08-19T10:53:53;21.50;99.90
45849;DHT22;31567;54.600;9.842;2022-08-19T10:57:33;21.50;99.90
45849;DHT22;31567;54.600;9.842;2022-08-19T11:01:12;21.50;99.90
45849;DHT22;31567;54.600;9.842;2022-08-19T11:04:52;21.50;99.90
45849;DHT22;31567;54.600;9.842;2022-08-19T11:08:32;21.50;99.90
45849;DHT22;31567;54.600;9.842;2022-08-19T11:12:12;21.60;99.90
45849;DHT22;31567;54.600;9.842;2022-08-19T11:16:00;21.80;99.90
45849;DHT22;31567;54.600;9.842;2022-08-19T11:19:40;21.80;99.90
45849;DHT22;31567;54.600;9.842;2022-08-19T11:23:21;22.00;99.90
45849;DHT22;31567;54.600;9.842;2022-08-19T11:27:06;22.10;99.90
45849;DHT22;31567;54.600;9.842;2022-08-19T11:30:48;22.20;99.90
45849;DHT22;31567;54.600;9.842;2022-08-19T11:34:27;22.20;99.90
45849;DHT22;31567;54.600;9.842;2022-08-19T11:38:07;22.30;99.90
45849;DHT22;31567;54.600;9.842;2022-08-19T11:41:47;22.40;99.90
45849;DHT22;31567;54.600;9.842;2022-08-19T11:45:27;22.50;99.40
45849;DHT22;31567;54.600;9.842;2022-08-19T11:49:08;22.60;99.10
45849;DHT22;31567;54.600;9.842;2022-08-19T11:52:48;22.60;99.10
45849;DHT22;31567;54.600;9.842;2022-08-19T11:56:28;22.70;98.60
45849;DHT22;31567;54.600;9.842;2022-08-19T12:00:09;22.70;98.30
45849;DHT22;31567;54.600;9.842;2022-08-19T12:03:52;22.80;98.60
45849;DHT22;31567;54.600;9.842;2022-08-19T12:07:33;22.80;98.10
45849;DHT22;31567;54.600;9.842;2022-08-19T12:11:13;22.90;98.00
45849;DHT22;31567;54.600;9.842;2022-08-19T12:14:53;22.90;97.70
45849;DHT22;31567;54.600;9.842;2022-08-19T12:18:35;22.90;97.50
45849;DHT22;31567;54.600;9.842;2022-08-19T12:22:15;22.80;97.40
45849;DHT22;31567;54.600;9.842;2022-08-19T12:25:55;22.80;97.40
45849;DHT22;31567;54.600;9.842;2022-08-19T12:29:36;22.90;97.50
45849;DHT22;31567;54.600;9.842;2022-08-19T12:33:16;22.90;97.50
45849;DHT22;31567;54.600;9.842;2022-08-19T12:37:00;23.00;97.30
45849;DHT22;31567;54.600;9.842;2022-08-19T12:40:40;23.00;97.10
45849;DHT22;31567;54.600;9.842;2022-08-19T12:44:21;23.10;97.10
45849;DHT22;31567;54.600;9.842;2022-08-19T12:48:01;23.00;96.80
45849;DHT22;31567;54.600;9.842;2022-08-19T12:51:41;23.00;96.80
45849;DHT22;31567;54.600;9.842;2022-08-19T12:55:21;23.00;96.90
45849;DHT22;31567;54.600;9.842;2022-08-19T12:59:02;23.00;96.80
45849;DHT22;31567;54.600;9.842;2022-08-19T13:02:44;22.90;96.70
45849;DHT22;31567;54.600;9.842;2022-08-19T13:06:25;22.90;96.70
45849;DHT22;31567;54.600;9.842;2022-08-19T13:10:06;23.00;96.70
45849;DHT22;31567;54.600;9.842;2022-08-19T13:13:48;22.90;96.70
45849;DHT22;31567;54.600;9.842;2022-08-19T13:17:30;23.10;96.90
45849;DHT22;31567;54.600;9.842;2022-08-19T13:21:10;23.20;96.70
45849;DHT22;31567;54.600;9.842;2022-08-19T13:24:52;23.30;96.30
45849;DHT22;31567;54.600;9.842;2022-08-19T13:28:32;23.40;96.20
45849;DHT22;31567;54.600;9.842;2022-08-19T13:32:30;23.60;96.50
45849;DHT22;31567;54.600;9.842;2022-08-19T13:36:28;23.70;96.00
45849;DHT22;31567;54.600;9.842;2022-08-19T13:40:12;23.80;95.80
45849;DHT22;31567;54.600;9.842;2022-08-19T13:43:52;24.00;95.30
45849;DHT22;31567;54.600;9.842;2022-08-19T13:47:32;24.20;95.30
45849;DHT22;31567;54.600;9.842;2022-08-19T13:51:14;24.20;95.10
45849;DHT22;31567;54.600;9.842;2022-08-19T13:54:55;24.30;95.00
45849;DHT22;31567;54.600;9.842;2022-08-19T13:58:36;24.50;94.80
45849;DHT22;31567;54.600;9.842;2022-08-19T14:02:16;24.70;94.70
45849;DHT22;31567;54.600;9.842;2022-08-19T14:05:56;24.80;94.20
45849;DHT22;31567;54.600;9.842;2022-08-19T14:09:35;24.90;94.00
45849;DHT22;31567;54.600;9.842;2022-08-19T14:13:18;24.90;93.90
45849;DHT22;31567;54.600;9.842;2022-08-19T14:16:59;24.80;94.20
45849;DHT22;31567;54.600;9.842;2022-08-19T14:20:39;24.80;94.10
45849;DHT22;31567;54.600;9.842;2022-08-19T14:24:18;24.90;94.10
45849;DHT22;31567;54.600;9.842;2022-08-19T14:27:58;24.90;94.10
45849;DHT22;31567;54.600;9.842;2022-08-19T14:31:37;25.00;93.90
45849;DHT22;31567;54.600;9.842;2022-08-19T14:35:21;25.00;93.60
45849;DHT22;31567;54.600;9.842;2022-08-19T14:39:01;24.80;93.50
45849;DHT22;31567;54.600;9.842;2022-08-19T14:42:41;24.90;93.50
45849;DHT22;31567;54.600;9.842;2022-08-19T14:46:23;24.80;93.40
45849;DHT22;31567;54.600;9.842;2022-08-19T14:50:06;24.80;93.70
45849;DHT22;31567;54.600;9.842;2022-08-19T14:53:46;24.80;93.70
45849;DHT22;31567;54.600;9.842;2022-08-19T14:57:29;25.00;93.80
45849;DHT22;31567;54.600;9.842;2022-08-19T15:01:09;25.10;93.50
45849;DHT22;31567;54.600;9.842;2022-08-19T15:04:49;25.20;93.10
45849;DHT22;31567;54.600;9.842;2022-08-19T15:08:31;25.20;93.10
45849;DHT22;31567;54.600;9.842;2022-08-19T15:12:10;25.20;92.80
45849;DHT22;31567;54.600;9.842;2022-08-19T15:15:50;25.20;92.90
45849;DHT22;31567;54.600;9.842;2022-08-19T15:19:31;25.30;93.00
45849;DHT22;31567;54.600;9.842;2022-08-19T15:23:12;25.30;92.80
45849;DHT22;31567;54.600;9.842;2022-08-19T15:26:53;25.20;92.90
45849;DHT22;31567;54.600;9.842;2022-08-19T15:30:34;25.20;92.70
45849;DHT22;31567;54.600;9.842;2022-08-19T15:34:14;25.20;93.00
45849;DHT22;31567;54.600;9.842;2022-08-19T15:37:54;25.10;93.20
45849;DHT22;31567;54.600;9.842;2022-08-19T15:41:35;25.20;93.20
45849;DHT22;31567;54.600;9.842;2022-08-19T15:45:19;25.10;93.20
45849;DHT22;31567;54.600;9.842;2022-08-19T15:49:00;25.10;93.90
45849;DHT22;31567;54.600;9.842;2022-08-19T15:52:51;25.00;93.80
45849;DHT22;31567;54.600;9.842;2022-08-19T15:56:31;25.10;94.10
45849;DHT22;31567;54.600;9.842;2022-08-19T16:00:30;25.00;94.30
45849;DHT22;31567;54.600;9.842;2022-08-19T16:04:28;25.10;94.20
45849;DHT22;31567;54.600;9.842;2022-08-19T16:08:26;25.10;94.10
45849;DHT22;31567;54.600;9.842;2022-08-19T16:12:05;25.30;93.60
45849;DHT22;31567;54.600;9.842;2022-08-19T16:15:46;25.40;93.50
45849;DHT22;31567;54.600;9.842;2022-08-19T16:19:27;25.60;93.40
45849;DHT22;31567;54.600;9.842;2022-08-19T16:23:07;25.60;93.20
45849;DHT22;31567;54.600;9.842;2022-08-19T16:26:47;25.70;93.00
45849;DHT22;31567;54.600;9.842;2022-08-19T16:30:27;25.80;92.70
45849;DHT22;31567;54.600;9.842;2022-08-19T16:34:07;26.00;93.00
45849;DHT22;31567;54.600;9.842;2022-08-19T16:37:46;26.20;92.90
45849;DHT22;31567;54.600;9.842;2022-08-19T16:41:27;26.50;92.10
45849;DHT22;31567;54.600;9.842;2022-08-19T16:45:07;26.70;91.80
45849;DHT22;31567;54.600;9.842;2022-08-19T16:48:48;26.70;91.70
45849;DHT22;31567;54.600;9.842;2022-08-19T16:52:27;26.70;91.40
45849;DHT22;31567;54.600;9.842;2022-08-19T16:56:07;26.70;91.40
45849;DHT22;31567;54.600;9.842;2022-08-19T16:59:48;26.50;91.20
45849;DHT22;31567;54.600;9.842;2022-08-19T17:03:30;26.40;91.40
45849;DHT22;31567;54.600;9.842;2022-08-19T17:07:10;26.20;91.70
45849;DHT22;31567;54.600;9.842;2022-08-19T17:10:50;26.20;91.90
45849;DHT22;31567;54.600;9.842;2022-08-19T17:14:30;26.10;91.90
45849;DHT22;31567;54.600;9.842;2022-08-19T17:18:11;26.00;92.00
45849;DHT22;31567;54.600;9.842;2022-08-19T17:21:51;25.90;92.10
45849;DHT22;31567;54.600;9.842;2022-08-19T17:25:32;26.00;92.30
45849;DHT22;31567;54.600;9.842;2022-08-19T17:29:12;26.00;92.10
45849;DHT22;31567;54.600;9.842;2022-08-19T17:32:52;26.00;92.10
45849;DHT22;31567;54.600;9.842;2022-08-19T17:36:32;25.90;92.20
45849;DHT22;31567;54.600;9.842;2022-08-19T17:40:13;25.90;92.20
45849;DHT22;31567;54.600;9.842;2022-08-19T17:43:53;25.90;92.00
45849;DHT22;31567;54.600;9.842;2022-08-19T17:47:33;26.00;92.00
45849;DHT22;31567;54.600;9.842;2022-08-19T17:51:23;26.10;91.90
45849;DHT22;31567;54.600;9.842;2022-08-19T17:55:04;26.10;91.80
45849;DHT22;31567;54.600;9.842;2022-08-19T17:58:43;26.10;91.90
45849;DHT22;31567;54.600;9.842;2022-08-19T18:02:24;25.90;92.00
45849;DHT22;31567;54.600;9.842;2022-08-19T18:06:03;25.80;92.00
45849;DHT22;31567;54.600;9.842;2022-08-19T18:09:44;25.60;92.20
45849;DHT22;31567;54.600;9.842;2022-08-19T18:13:23;25.50;92.40
45849;DHT22;31567;54.600;9.842;2022-08-19T18:17:12;25.40;92.60
45849;DHT22;31567;54.600;9.842;2022-08-19T18:20:52;25.20;92.80
45849;DHT22;31567;54.600;9.842;2022-08-19T18:24:32;25.10;93.20
45849;DHT22;31567;54.600;9.842;2022-08-19T18:28:12;25.00;93.30
45849;DHT22;31567;54.600;9.842;2022-08-19T18:31:51;24.90;93.50
45849;DHT22;31567;54.600;9.842;2022-08-19T18:35:32;24.80;93.70
45849;DHT22;31567;54.600;9.842;2022-08-19T18:39:12;24.60;93.80
45849;DHT22;31567;54.600;9.842;2022-08-19T18:43:10;24.60;94.00
45849;DHT22;31567;54.600;9.842;2022-08-19T18:46:49;24.50;94.20
45849;DHT22;31567;54.600;9.842;2022-08-19T18:50:47;24.50;94.40
45849;DHT22;31567;54.600;9.842;2022-08-19T18:54:28;24.30;94.50
45849;DHT22;31567;54.600;9.842;2022-08-19T18:58:07;24.30;94.40
45849;DHT22;31567;54.600;9.842;2022-08-19T19:01:48;24.20;94.50
45849;DHT22;31567;54.600;9.842;2022-08-19T19:05:28;24.10;94.50
45849;DHT22;31567;54.600;9.842;2022-08-19T19:09:27;24.10;94.70
45849;DHT22;31567;54.600;9.842;2022-08-19T19:13:06;24.00;94.60
45849;DHT22;31567;54.600;9.842;2022-08-19T19:16:46;23.90;94.80
45849;DHT22;31567;54.600;9.842;2022-08-19T19:20:26;23.80;94.80
45849;DHT22;31567;54.600;9.842;2022-08-19T19:24:09;23.80;94.80
45849;DHT22;31567;54.600;9.842;2022-08-19T19:27:50;23.70;94.90
45849;DHT22;31567;54.600;9.842;2022-08-19T19:31:29;23.60;95.20
45849;DHT22;31567;54.600;9.842;2022-08-19T19:35:11;23.50;95.00
45849;DHT22;31567;54.600;9.842;2022-08-19T19:38:51;23.30;94.90
45849;DHT22;31567;54.600;9.842;2022-08-19T19:42:31;23.10;95.20
45849;DHT22;31567;54.600;9.842;2022-08-19T19:46:10;22.90;95.50
45849;DHT22;31567;54.600;9.842;2022-08-19T19:49:52;22.80;95.60
45849;DHT22;31567;54.600;9.842;2022-08-19T19:53:33;22.70;95.70
45849;DHT22;31567;54.600;9.842;2022-08-19T19:57:13;22.60;95.70
45849;DHT22;31567;54.600;9.842;2022-08-19T20:00:54;22.60;95.60
45849;DHT22;31567;54.600;9.842;2022-08-19T20:04:34;22.50;95.50
45849;DHT22;31567;54.600;9.842;2022-08-19T20:08:15;22.40;95.30
45849;DHT22;31567;54.600;9.842;2022-08-19T20:12:13;22.40;95.20
45849;DHT22;31567;54.600;9.842;2022-08-19T20:15:53;22.30;95.00
45849;DHT22;31567;54.600;9.842;2022-08-19T20:19:33;22.20;94.80
45849;DHT22;31567;54.600;9.842;2022-08-19T20:23:17;22.00;94.80
45849;DHT22;31567;54.600;9.842;2022-08-19T20:26:58;21.90;94.90
45849;DHT22;31567;54.600;9.842;2022-08-19T20:30:39;21.80;94.90
45849;DHT22;31567;54.600;9.842;2022-08-19T20:34:19;21.80;94.80
45849;DHT22;31567;54.600;9.842;2022-08-19T20:37:59;21.80;94.70
45849;DHT22;31567;54.600;9.842;2022-08-19T20:41:39;21.70;94.70
45849;DHT22;31567;54.600;9.842;2022-08-19T20:45:23;21.70;94.60
45849;DHT22;31567;54.600;9.842;2022-08-19T20:49:03;21.70;94.60
45849;DHT22;31567;54.600;9.842;2022-08-19T20:52:42;21.70;94.60
45849;DHT22;31567;54.600;9.842;2022-08-19T20:56:22;21.60;94.40
45849;DHT22;31567;54.600;9.842;2022-08-19T21:00:04;21.60;94.30
45849;DHT22;31567;54.600;9.842;2022-08-19T21:03:46;21.50;94.10
45849;DHT22;31567;54.600;9.842;2022-08-19T21:07:26;21.40;94.00
45849;DHT22;31567;54.600;9.842;2022-08-19T21:11:06;21.20;94.10
45849;DHT22;31567;54.600;9.842;2022-08-19T21:14:48;21.00;94.40
45849;DHT22;31567;54.600;9.842;2022-08-19T21:18:27;21.00;94.50
45849;DHT22;31567;54.600;9.842;2022-08-19T21:22:08;20.90;94.60
45849;DHT22;31567;54.600;9.842;2022-08-19T21:25:50;20.80;94.40
45849;DHT22;31567;54.600;9.842;2022-08-19T21:29:29;20.70;94.50
45849;DHT22;31567;54.600;9.842;2022-08-19T21:33:10;20.70;94.80
45849;DHT22;31567;54.600;9.842;2022-08-19T21:36:50;20.60;94.70
45849;DHT22;31567;54.600;9.842;2022-08-19T21:40:30;20.60;95.00
45849;DHT22;31567;54.600;9.842;2022-08-19T21:44:10;20.50;95.00
45849;DHT22;31567;54.600;9.842;2022-08-19T21:47:50;20.40;94.80
45849;DHT22;31567;54.600;9.842;2022-08-19T21:51:29;20.30;95.00
45849;DHT22;31567;54.600;9.842;2022-08-19T21:55:10;20.20;95.30
45849;DHT22;31567;54.600;9.842;2022-08-19T21:58:50;20.10;95.20
45849;DHT22;31567;54.600;9.842;2022-08-19T22:02:30;20.00;95.10
45849;DHT22;31567;54.600;9.842;2022-08-19T22:06:10;19.80;95.20
45849;DHT22;31567;54.600;9.842;2022-08-19T22:09:51;19.80;95.40
45849;DHT22;31567;54.600;9.842;2022-08-19T22:13:33;19.70;95.70
45849;DHT22;31567;54.600;9.842;2022-08-19T22:17:16;19.70;95.80
45849;DHT22;31567;54.600;9.842;2022-08-19T22:20:56;19.70;95.80
45849;DHT22;31567;54.600;9.842;2022-08-19T22:24:36;19.60;95.50
45849;DHT22;31567;54.600;9.842;2022-08-19T22:28:17;19.60;95.50
45849;DHT22;31567;54.600;9.842;2022-08-19T22:31:56;19.50;95.60
45849;DHT22;31567;54.600;9.842;2022-08-19T22:35:38;19.40;95.70
45849;DHT22;31567;54.600;9.842;2022-08-19T22:39:17;19.30;95.80
45849;DHT22;31567;54.600;9.842;2022-08-19T22:43:06;19.30;96.00
45849;DHT22;31567;54.600;9.842;2022-08-19T22:46:45;19.20;95.60
45849;DHT22;31567;54.600;9.842;2022-08-19T22:50:25;19.10;95.50
45849;DHT22;31567;54.600;9.842;2022-08-19T22:54:05;19.00;95.50
45849;DHT22;31567;54.600;9.842;2022-08-19T22:57:44;18.90;95.60
45849;DHT22;31567;54.600;9.842;2022-08-19T23:01:24;18.90;95.70
45849;DHT22;31567;54.600;9.842;2022-08-19T23:05:08;18.90;95.90
45849;DHT22;31567;54.600;9.842;2022-08-19T23:08:48;18.90;96.10
45849;DHT22;31567;54.600;9.842;2022-08-19T23:12:32;18.90;96.30
45849;DHT22;31567;54.600;9.842;2022-08-19T23:16:12;19.00;96.10
45849;DHT22;31567;54.600;9.842;2022-08-19T23:19:52;18.90;95.80
45849;DHT22;31567;54.600;9.842;2022-08-19T23:23:31;18.80;95.80